Time;durP1;ratioP1;P1;durP2;ratioP2;P2;SDS_P1;SDS_P2;PMS_P1;PMS_P2;Temp;Humidity;BMP_temperature;BMP_pressure;BME280_temperature;BME280_humidity;BME280_pressure;Samples;Min_cycle;Max_cycle;Signal;HPM_P1;HPM_P2
2024/01/25 00:00:09;;;;;;;8.03;1.10;;;;;;;5.03;100.00;99002.78;4202948;28;20302;-66
2024/01/25 00:02:36;;;;;;;13.43;1.10;;;;;;;5.02;100.00;98998.41;4211309;28;20244;-67
2024/01/25 00:05:03;;;;;;;21.57;11.30;;;;;;;5.01;100.00;98999.38;4206135;28;20243;-65
2024/01/25 00:07:30;;;;;;;7.37;1.53;;;;;;;4.98;100.00;99011.25;4209352;28;20309;-66
2024/01/25 00:09:57;;;;;;;13.80;2.13;;;;;;;4.94;100.00;99007.19;4210901;28;21082;-65
2024/01/25 00:12:24;;;;;;;3.00;0.60;;;;;;;4.94;100.00;98996.47;4210952;28;20410;-67
2024/01/25 00:14:52;;;;;;;3.60;0.67;;;;;;;4.99;100.00;99012.09;4206154;28;21812;-65
2024/01/25 00:17:19;;;;;;;1.50;0.57;;;;;;;4.97;99.93;99009.56;4210890;28;20326;-65
2024/01/25 00:19:45;;;;;;;1.60;0.60;;;;;;;5.01;99.33;98997.56;4211008;28;20396;-66
2024/01/25 00:22:12;;;;;;;6.03;1.03;;;;;;;4.98;98.86;99000.53;4208490;28;20620;-66
2024/01/25 00:24:39;;;;;;;2.07;0.73;;;;;;;4.99;98.76;99002.22;4208263;28;20413;-65
2024/01/25 00:27:05;;;;;;;9.47;1.10;;;;;;;4.90;99.76;99009.31;4211083;28;21889;-66
2024/01/25 00:29:34;;;;;;;5.77;0.90;;;;;;;4.86;100.00;99009.75;4211025;28;20235;-67
2024/01/25 00:32:00;;;;;;;0.57;0.30;;;;;;;4.85;100.00;99000.03;4209103;28;21834;-66
2024/01/25 00:34:27;;;;;;;6.20;0.80;;;;;;;4.79;100.00;99001.44;4210529;28;20246;-65
2024/01/25 00:36:54;;;;;;;3.80;1.10;;;;;;;4.73;100.00;99012.75;4212864;28;23490;-67
2024/01/25 00:39:21;;;;;;;4.90;1.00;;;;;;;4.60;100.00;99003.19;4210096;28;20248;-66
2024/01/25 00:41:51;;;;;;;1.50;0.53;;;;;;;4.60;100.00;99007.69;4198894;28;20828;-66
2024/01/25 00:44:18;;;;;;;1.53;0.83;;;;;;;4.63;100.00;99007.41;4214259;28;23979;-67
2024/01/25 00:46:46;;;;;;;2.13;0.40;;;;;;;4.59;100.00;99001.50;4213431;28;20244;-65
2024/01/25 00:49:14;;;;;;;7.40;1.20;;;;;;;4.49;100.00;99011.38;4208267;28;20234;-66
2024/01/25 00:51:46;;;;;;;2.83;0.87;;;;;;;4.49;100.00;99018.59;4213410;28;20305;-66
2024/01/25 00:54:14;;;;;;;0.47;0.20;;;;;;;4.46;100.00;99030.41;4201727;28;20345;-66
2024/01/25 00:56:41;;;;;;;5.17;0.77;;;;;;;4.39;100.00;99032.84;4211502;28;21618;-65
2024/01/25 00:59:08;;;;;;;5.67;1.20;;;;;;;4.35;100.00;99030.59;4209874;28;20232;-66
2024/01/25 01:01:36;;;;;;;2.03;0.30;;;;;;;4.25;100.00;99027.91;4215755;28;20247;-66
2024/01/25 01:04:03;;;;;;;9.43;1.13;;;;;;;4.23;100.00;99030.72;4214434;28;20290;-65
2024/01/25 01:06:30;;;;;;;4.57;0.50;;;;;;;4.20;100.00;99032.84;4218348;28;20307;-66
2024/01/25 01:08:57;;;;;;;5.83;1.53;;;;;;;4.21;100.00;99019.31;4215953;28;21174;-66
2024/01/25 01:11:23;;;;;;;4.27;0.67;;;;;;;4.27;100.00;99032.16;4213429;28;20298;-66
2024/01/25 01:13:50;;;;;;;9.43;0.83;;;;;;;4.38;100.00;99023.09;4217031;28;20230;-67
2024/01/25 01:16:16;;;;;;;2.73;0.80;;;;;;;4.30;100.00;99008.75;4211334;28;20219;-66
2024/01/25 01:18:43;;;;;;;0.50;0.40;;;;;;;4.35;100.00;99015.34;4211978;28;20274;-66
2024/01/25 01:21:11;;;;;;;14.03;1.33;;;;;;;4.36;100.00;99032.28;4212235;28;20240;-65
2024/01/25 01:23:37;;;;;;;8.00;1.20;;;;;;;4.35;100.00;99023.38;4218477;28;20357;-65
2024/01/25 01:26:04;;;;;;;5.40;1.03;;;;;;;4.37;100.00;99018.72;4214918;28;20232;-66
2024/01/25 01:28:31;;;;;;;6.53;1.03;;;;;;;4.39;100.00;99006.06;4211537;28;20234;-65
2024/01/25 01:30:58;;;;;;;7.57;1.10;;;;;;;4.37;100.00;99025.94;4207557;28;20254;-66
2024/01/25 01:33:24;;;;;;;0.37;0.37;;;;;;;4.46;100.00;99014.34;4214450;28;20239;-66
2024/01/25 01:35:51;;;;;;;10.43;2.17;;;;;;;4.36;100.00;99017.03;4215461;28;20654;-67
2024/01/25 01:38:18;;;;;;;1.27;0.40;;;;;;;4.42;100.00;99021.81;4214033;28;20650;-66
2024/01/25 01:40:45;;;;;;;27.57;2.73;;;;;;;4.36;100.00;99027.75;4212019;28;21130;-66
2024/01/25 01:43:19;;;;;;;9.30;1.03;;;;;;;4.33;100.00;99022.69;4218212;28;20298;-67
2024/01/25 01:45:46;;;;;;;4.00;0.93;;;;;;;4.39;100.00;99034.66;4215913;28;20243;-65
2024/01/25 01:48:13;;;;;;;9.60;1.40;;;;;;;4.38;100.00;99022.28;4219017;28;20238;-67
2024/01/25 01:50:42;;;;;;;6.03;0.73;;;;;;;4.38;100.00;99017.75;4214822;28;20241;-65
2024/01/25 01:53:10;;;;;;;1.33;0.47;;;;;;;4.38;100.00;99015.06;4216465;28;21289;-67
2024/01/25 01:55:39;;;;;;;12.00;1.57;;;;;;;4.36;100.00;99018.88;4216618;28;20234;-66
2024/01/25 01:58:06;;;;;;;5.40;1.03;;;;;;;4.37;100.00;99018.72;4216129;28;20235;-66
2024/01/25 02:00:33;;;;;;;4.50;0.77;;;;;;;4.38;100.00;99000.84;4213290;28;20231;-66
2024/01/25 02:03:01;;;;;;;0.20;0.20;;;;;;;4.39;100.00;98992.66;4214646;28;20254;-65
2024/01/25 02:05:27;;;;;;;6.70;1.30;;;;;;;4.46;100.00;98990.22;4213093;28;24117;-66
2024/01/25 02:07:54;;;;;;;12.73;1.60;;;;;;;4.49;100.00;98998.00;4216833;28;20242;-67
2024/01/25 02:10:20;;;;;;;13.03;2.17;;;;;;;4.51;100.00;99012.09;4216578;28;20228;-64
2024/01/25 02:12:47;;;;;;;2.67;0.70;;;;;;;4.50;100.00;99005.03;4210517;28;22325;-67
2024/01/25 02:15:14;;;;;;;1.23;0.40;;;;;;;4.59;100.00;98997.97;4215226;28;20242;-66
2024/01/25 02:17:40;;;;;;;10.93;2.27;;;;;;;4.58;100.00;99012.34;4214641;28;20622;-67
2024/01/25 02:20:07;;;;;;;0.63;0.43;;;;;;;4.66;100.00;99006.28;4215064;28;20259;-66
2024/01/25 02:22:34;;;;;;;1.80;0.93;;;;;;;4.62;100.00;99002.19;4215933;28;20224;-66
2024/01/25 02:25:01;;;;;;;4.00;1.77;;;;;;;4.53;100.00;99011.94;4214300;28;20361;-67
2024/01/25 02:27:28;;;;;;;3.93;1.00;;;;;;;4.54;100.00;99024.38;4212614;28;20935;-66
2024/01/25 02:29:54;;;;;;;9.23;1.47;;;;;;;4.53;100.00;99014.63;4213432;28;20377;-67
2024/01/25 02:32:21;;;;;;;10.20;1.73;;;;;;;4.47;100.00;99007.16;4214040;28;20236;-67
2024/01/25 02:34:48;;;;;;;4.43;1.00;;;;;;;4.48;100.00;99015.06;4211802;28;20311;-66
2024/01/25 02:37:15;;;;;;;6.97;0.83;;;;;;;4.47;100.00;99021.41;4210549;28;20238;-66
2024/01/25 02:39:42;;;;;;;9.23;1.20;;;;;;;4.27;100.00;99020.56;4215322;28;22744;-66
2024/01/25 02:42:09;;;;;;;9.17;1.47;;;;;;;4.18;100.00;99032.16;4215760;28;20236;-65
2024/01/25 02:44:36;;;;;;;10.00;1.93;;;;;;;4.19;100.00;99039.22;4211949;28;20236;-67
2024/01/25 02:47:02;;;;;;;7.83;1.07;;;;;;;4.11;100.00;99030.03;4214870;28;25630;-66
2024/01/25 02:49:29;;;;;;;7.17;1.37;;;;;;;4.14;100.00;99028.91;4218015;28;21384;-67
2024/01/25 02:51:56;;;;;;;14.67;2.13;;;;;;;4.08;100.00;99033.00;4212352;28;20619;-66
2024/01/25 02:54:22;;;;;;;7.43;1.50;;;;;;;4.10;100.00;99033.72;4213860;28;20223;-66
2024/01/25 02:56:49;;;;;;;3.60;0.83;;;;;;;4.08;100.00;99032.13;4219003;28;20244;-66
2024/01/25 02:59:15;;;;;;;5.73;1.03;;;;;;;4.07;100.00;99015.22;4212244;28;20231;-66
2024/01/25 03:01:43;;;;;;;0.13;0.07;;;;;;;4.16;100.00;99032.28;4213895;28;21682;-66
2024/01/25 03:04:11;;;;;;;5.63;1.57;;;;;;;4.10;100.00;99041.75;4214898;28;20242;-67
2024/01/25 03:06:37;;;;;;;11.03;2.00;;;;;;;4.12;100.00;99037.06;4211890;28;21218;-66
2024/01/25 03:09:04;;;;;;;11.30;1.80;;;;;;;4.12;100.00;99033.56;4209640;28;20581;-66
2024/01/25 03:11:31;;;;;;;3.70;0.87;;;;;;;4.18;100.00;99016.09;4214845;28;20676;-66
2024/01/25 03:13:58;;;;;;;1.20;0.47;;;;;;;4.22;100.00;99045.13;4213221;28;20238;-68
2024/01/25 03:16:24;;;;;;;9.70;1.67;;;;;;;4.13;100.00;99049.47;4229241;28;20315;-66
2024/01/25 03:18:51;;;;;;;1.70;1.27;;;;;;;4.13;100.00;99044.13;4214215;28;20242;-66
2024/01/25 03:21:18;;;;;;;7.43;0.67;;;;;;;4.00;100.00;99045.41;4215665;28;20241;-66
2024/01/25 03:23:44;;;;;;;20.77;3.23;;;;;;;3.91;100.00;99044.38;4205348;28;23748;-66
2024/01/25 03:26:11;;;;;;;9.67;1.53;;;;;;;3.83;100.00;99045.09;4211837;28;20251;-66
2024/01/25 03:28:39;;;;;;;8.90;1.23;;;;;;;3.81;100.00;99052.41;4212991;28;20238;-67
2024/01/25 03:31:06;;;;;;;9.57;1.53;;;;;;;3.76;100.00;99051.97;4214122;28;21232;-68
2024/01/25 03:33:33;;;;;;;12.57;1.63;;;;;;;3.75;100.00;99053.78;4211105;28;20664;-66
2024/01/25 03:36:03;;;;;;;3.20;0.90;;;;;;;3.75;100.00;99044.94;4210736;28;20560;-66
2024/01/25 03:38:31;;;;;;;2.97;0.63;;;;;;;3.83;100.00;99049.59;4215629;28;20715;-65
2024/01/25 03:40:58;;;;;;;6.03;1.63;;;;;;;3.76;100.00;99060.00;4212910;28;21405;-65
2024/01/25 03:43:25;;;;;;;0.40;0.30;;;;;;;3.84;100.00;99060.16;4211229;28;20347;-67
2024/01/25 03:45:59;;;;;;;1.23;0.70;;;;;;;3.76;100.00;99052.81;4210287;28;20861;-67
2024/01/25 03:48:26;;;;;;;6.50;0.87;;;;;;;3.71;100.00;99043.50;4212765;28;20310;-66
2024/01/25 03:50:56;;;;;;;9.37;1.60;;;;;;;3.67;100.00;99050.13;4213711;28;20270;-65
2024/01/25 03:53:23;;;;;;;9.47;1.17;;;;;;;3.69;100.00;99048.16;4211052;28;25417;-67
2024/01/25 03:55:49;;;;;;;12.00;1.87;;;;;;;3.67;100.00;99050.97;4219034;28;20231;-66
2024/01/25 03:58:19;;;;;;;2.17;1.00;;;;;;;3.70;100.00;99047.19;4215161;28;20569;-67
2024/01/25 04:00:46;;;;;;;10.60;1.43;;;;;;;3.71;100.00;99036.34;4199476;28;25825;-64
2024/01/25 04:03:12;;;;;;;23.00;2.43;;;;;;;3.71;100.00;99041.69;4210405;28;20948;-67
2024/01/25 04:05:39;;;;;;;1.30;0.60;;;;;;;3.73;100.00;99041.53;4212252;28;25641;-70
2024/01/25 04:08:06;;;;;;;8.23;1.03;;;;;;;3.69;100.00;99051.69;4216654;28;20240;-66
2024/01/25 04:10:33;;;;;;;1.30;0.67;;;;;;;3.71;100.00;99043.50;4215172;28;20235;-66
2024/01/25 04:13:00;;;;;;;7.33;0.77;;;;;;;3.68;100.00;99051.81;4200389;28;21097;-66
2024/01/25 04:15:27;;;;;;;8.47;1.03;;;;;;;3.61;100.00;99052.38;4217460;28;20239;-65
2024/01/25 04:17:55;;;;;;;5.57;1.00;;;;;;;3.61;100.00;99047.03;4214754;28;20318;-66
2024/01/25 04:20:22;;;;;;;5.27;0.83;;;;;;;3.57;100.00;99050.94;4214200;28;20760;-66
2024/01/25 04:22:49;;;;;;;7.30;1.20;;;;;;;3.58;100.00;99051.81;4212753;28;20242;-66
2024/01/25 04:25:16;;;;;;;2.13;1.23;;;;;;;3.63;100.00;99066.44;4202216;28;23085;-66
2024/01/25 04:27:42;;;;;;;3.00;1.43;;;;;;;3.59;100.00;99066.84;4213579;28;20326;-67
2024/01/25 04:30:09;;;;;;;7.13;1.13;;;;;;;3.59;100.00;99066.84;4216301;28;20240;-67
2024/01/25 04:32:37;;;;;;;8.53;0.97;;;;;;;3.58;100.00;99065.19;4209912;28;20239;-67
2024/01/25 04:35:04;;;;;;;14.30;2.93;;;;;;;3.56;100.00;99064.47;4214725;28;20310;-66
2024/01/25 04:37:30;;;;;;;5.90;2.13;;;;;;;3.57;100.00;99068.84;4219780;28;21058;-66
2024/01/25 04:39:57;;;;;;;10.37;1.70;;;;;;;3.55;100.00;99071.63;4218823;28;20607;-69
2024/01/25 04:42:24;;;;;;;4.03;0.90;;;;;;;3.60;100.00;99076.56;4211442;28;20406;-65
2024/01/25 04:44:50;;;;;;;8.27;1.37;;;;;;;3.57;100.00;99066.16;4215306;28;20240;-64
2024/01/25 04:47:17;;;;;;;0.87;0.43;;;;;;;3.62;100.00;99078.16;4215461;28;21040;-66
2024/01/25 04:49:43;;;;;;;7.07;2.20;;;;;;;3.62;100.00;99069.28;4216837;28;22665;-66
2024/01/25 04:52:10;;;;;;;9.27;1.37;;;;;;;3.60;100.00;99065.88;4218083;28;20235;-67
2024/01/25 04:54:37;;;;;;;20.00;1.97;;;;;;;3.63;100.00;99062.94;4216532;28;20275;-67
2024/01/25 04:57:06;;;;;;;3.47;1.07;;;;;;;3.65;100.00;99075.19;4215848;28;20243;-68
2024/01/25 04:59:33;;;;;;;15.63;1.73;;;;;;;3.69;100.00;99072.25;4214801;28;20375;-65
2024/01/25 05:02:00;;;;;;;4.83;0.87;;;;;;;3.67;100.00;99064.34;4217385;28;20689;-66
2024/01/25 05:04:29;;;;;;;4.43;1.00;;;;;;;3.63;100.00;99070.97;4214529;28;20649;-67
2024/01/25 05:06:56;;;;;;;0.60;0.50;;;;;;;3.65;100.00;99080.53;4215516;28;20630;-66
2024/01/25 05:09:23;;;;;;;8.77;1.47;;;;;;;3.59;100.00;99069.53;4215522;28;20244;-66
2024/01/25 05:11:49;;;;;;;6.13;1.13;;;;;;;3.67;100.00;99082.25;4215553;28;21198;-66
2024/01/25 05:14:17;;;;;;;4.33;0.97;;;;;;;3.65;100.00;99088.56;4214818;28;21587;-66
2024/01/25 05:16:43;;;;;;;6.20;2.23;;;;;;;3.75;100.00;99085.09;4220684;28;21113;-65
2024/01/25 05:19:10;;;;;;;9.27;1.60;;;;;;;3.81;100.00;99080.00;4219161;28;20238;-66
2024/01/25 05:21:37;;;;;;;10.10;2.43;;;;;;;3.89;100.00;99086.53;4215823;28;20224;-65
2024/01/25 05:24:04;;;;;;;2.47;0.63;;;;;;;3.90;100.00;99091.75;4219833;28;20602;-66
2024/01/25 05:26:31;;;;;;;7.00;1.27;;;;;;;3.93;100.00;99082.59;4214172;28;21111;-66
2024/01/25 05:28:58;;;;;;;8.07;1.27;;;;;;;4.04;100.00;99085.13;4212881;28;25847;-66
2024/01/25 05:31:24;;;;;;;7.80;1.40;;;;;;;4.09;100.00;99087.38;4217220;28;20279;-66
2024/01/25 05:33:51;;;;;;;7.83;1.50;;;;;;;4.12;100.00;99084.44;4217050;28;20265;-66
2024/01/25 05:36:18;;;;;;;0.77;0.40;;;;;;;4.19;100.00;99092.78;4215377;28;21692;-65
2024/01/25 05:38:44;;;;;;;4.07;1.23;;;;;;;4.13;100.00;99103.03;4209356;28;20252;-66
2024/01/25 05:41:11;;;;;;;4.87;0.90;;;;;;;4.13;100.00;99086.13;4218700;28;20260;-68
2024/01/25 05:43:37;;;;;;;0.37;0.30;;;;;;;4.22;100.00;99105.88;4216340;28;20236;-66
2024/01/25 05:46:04;;;;;;;9.67;1.20;;;;;;;4.13;100.00;99105.72;4217650;28;20332;-69
2024/01/25 05:48:31;;;;;;;6.33;0.70;;;;;;;4.21;100.00;99088.09;4211413;28;20615;-68
2024/01/25 05:50:58;;;;;;;14.37;2.60;;;;;;;4.13;100.00;99111.06;4215921;28;20298;-66
2024/01/25 05:53:25;;;;;;;9.77;1.33;;;;;;;4.20;100.00;99092.63;4215390;28;20750;-68
2024/01/25 05:55:52;;;;;;;0.40;0.33;;;;;;;4.27;100.00;99099.13;4214542;28;20255;-67
2024/01/25 05:58:18;;;;;;;13.23;1.17;;;;;;;4.19;100.00;99108.84;4214380;28;20281;-66
2024/01/25 06:00:45;;;;;;;0.30;0.30;;;;;;;4.26;100.00;99120.69;4219060;28;20658;-67
2024/01/25 06:03:12;;;;;;;5.50;0.80;;;;;;;4.20;100.00;99116.72;4218399;28;20345;-66
2024/01/25 06:05:38;;;;;;;13.70;2.00;;;;;;;4.16;100.00;99119.81;4211889;28;20448;-66
2024/01/25 06:08:06;;;;;;;6.67;0.87;;;;;;;4.15;100.00;99113.63;4212469;28;20534;-67
2024/01/25 06:10:33;;;;;;;6.13;0.80;;;;;;;4.15;100.00;99126.16;4219599;28;20277;-69
2024/01/25 06:12:59;;;;;;;6.97;1.33;;;;;;;4.13;100.00;99123.63;4231568;28;20247;-70
2024/01/25 06:15:26;;;;;;;12.77;2.47;;;;;;;4.04;100.00;99132.50;4201650;28;20351;-70
2024/01/25 06:17:53;;;;;;;5.17;2.10;;;;;;;3.99;100.00;99127.53;4215728;28;20990;-69
2024/01/25 06:20:19;;;;;;;0.37;0.20;;;;;;;4.08;100.00;99134.75;4220702;28;22278;-70
2024/01/25 06:22:47;;;;;;;1.57;0.83;;;;;;;4.00;100.00;99139.13;4231693;28;21867;-70
2024/01/25 06:25:13;;;;;;;5.93;1.47;;;;;;;4.04;100.00;99137.84;4223471;28;20273;-69
2024/01/25 06:27:40;;;;;;;8.67;1.40;;;;;;;4.07;100.00;99134.91;4212410;28;21250;-70
2024/01/25 06:30:07;;;;;;;6.80;1.07;;;;;;;4.17;100.00;99137.59;4214037;28;20444;-72
2024/01/25 06:32:33;;;;;;;2.43;0.60;;;;;;;4.18;100.00;99133.94;4220099;28;20263;-71
2024/01/25 06:35:00;;;;;;;11.90;1.43;;;;;;;4.17;100.00;99124.19;4213251;28;20236;-70
2024/01/25 06:37:27;;;;;;;2.30;0.93;;;;;;;4.13;100.00;99140.53;4224208;28;20816;-70
2024/01/25 06:39:54;;;;;;;5.07;1.80;;;;;;;4.11;100.00;99126.47;4221850;28;22130;-71
2024/01/25 06:42:21;;;;;;;6.00;0.87;;;;;;;4.13;100.00;99131.66;4226913;28;20632;-70
2024/01/25 06:44:48;;;;;;;17.93;4.57;;;;;;;4.19;100.00;99143.66;4213005;28;20259;-69
2024/01/25 06:47:15;;;;;;;3.80;0.50;;;;;;;4.03;100.00;99141.50;4233010;28;20381;-74
2024/01/25 06:49:41;;;;;;;0.30;0.20;;;;;;;4.05;100.00;99135.03;4219653;28;20244;-71
2024/01/25 06:52:08;;;;;;;7.23;0.90;;;;;;;3.92;100.00;99142.47;4205069;28;20655;-75
2024/01/25 06:54:35;;;;;;;21.33;3.13;;;;;;;3.88;100.00;99143.72;4210276;28;20612;-74
2024/01/25 06:57:02;;;;;;;9.40;2.93;;;;;;;3.81;100.00;99144.25;4231030;28;22080;-69
2024/01/25 06:59:29;;;;;;;2.93;0.60;;;;;;;3.83;100.00;99143.28;4223572;28;24815;-69
2024/01/25 07:01:56;;;;;;;2.77;0.30;;;;;;;3.78;100.00;99157.06;4218048;28;22622;-73
2024/01/25 07:04:24;;;;;;;5.77;1.13;;;;;;;3.77;100.00;99147.38;4220355;28;20266;-72
2024/01/25 07:06:51;;;;;;;8.43;1.37;;;;;;;3.81;100.00;99156.81;4219281;28;20397;-75
2024/01/25 07:09:19;;;;;;;0.40;0.20;;;;;;;3.79;100.00;99154.28;4220100;28;21723;-74
2024/01/25 07:11:46;;;;;;;0.93;0.77;;;;;;;3.68;100.00;99158.88;4221319;28;20235;-71
2024/01/25 07:14:12;;;;;;;5.70;1.27;;;;;;;3.68;100.00;99167.75;4231258;28;20403;-75
2024/01/25 07:16:39;;;;;;;0.53;0.40;;;;;;;3.68;100.00;99166.91;4214408;28;22048;-72
2024/01/25 07:19:06;;;;;;;4.37;1.23;;;;;;;3.69;100.00;99163.25;4225642;28;20242;-71
2024/01/25 07:21:33;;;;;;;1.03;0.70;;;;;;;3.60;100.00;99163.06;4216003;28;20249;-70
2024/01/25 07:24:06;;;;;;;0.40;0.17;;;;;;;3.60;100.00;99175.59;4205191;28;20378;-70
2024/01/25 07:26:33;;;;;;;1.57;0.60;;;;;;;3.64;100.00;99163.66;4219470;28;21137;-72
2024/01/25 07:28:59;;;;;;;0.07;0.03;;;;;;;3.71;100.00;99171.97;4244940;28;22886;-71
2024/01/25 07:31:27;;;;;;;2.53;0.83;;;;;;;3.70;100.00;99178.31;4220718;28;20242;-71
2024/01/25 07:33:55;;;;;;;1.70;0.80;;;;;;;3.73;100.00;99178.03;4237243;28;20267;-71
2024/01/25 07:36:22;;;;;;;3.63;0.47;;;;;;;3.74;100.00;99177.06;4224222;28;20271;-72
2024/01/25 07:38:51;;;;;;;4.10;0.83;;;;;;;3.76;100.00;99183.97;4224664;28;21134;-71
2024/01/25 07:41:18;;;;;;;7.00;1.37;;;;;;;3.76;100.00;99169.75;4222432;28;20455;-71
2024/01/25 07:43:45;;;;;;;1.80;0.27;;;;;;;3.78;100.00;99175.78;4218602;28;20239;-69
2024/01/25 07:46:14;;;;;;;0.20;0.20;;;;;;;3.83;100.00;99178.06;4219577;28;20232;-71
2024/01/25 07:48:42;;;;;;;1.33;0.53;;;;;;;3.89;100.00;99177.56;4222982;28;23045;-74
2024/01/25 07:51:13;;;;;;;3.10;0.37;;;;;;;3.95;100.00;99175.16;4205197;28;20276;-70
2024/01/25 07:53:39;;;;;;;6.40;1.03;;;;;;;3.94;100.00;99176.16;4227545;28;20236;-73
2024/01/25 07:56:08;;;;;;;3.20;0.90;;;;;;;3.89;100.00;99190.94;4222909;28;20665;-71
2024/01/25 07:58:35;;;;;;;4.37;0.67;;;;;;;3.95;100.00;99185.88;4236639;28;20306;-71
2024/01/25 08:01:05;;;;;;;0.60;0.40;;;;;;;3.98;100.00;99182.06;4208052;28;20238;-73
2024/01/25 08:03:32;;;;;;;1.40;1.13;;;;;;;3.97;100.00;99177.69;4231349;28;20295;-74
2024/01/25 08:06:02;;;;;;;6.60;0.90;;;;;;;3.97;100.00;99183.91;4213539;28;21290;-77
2024/01/25 08:08:29;;;;;;;1.43;0.60;;;;;;;4.00;100.00;99181.97;4227012;28;20643;-72
2024/01/25 08:10:56;;;;;;;0.87;0.53;;;;;;;3.96;100.00;99192.94;4202858;28;20304;-77
2024/01/25 08:13:23;;;;;;;0.77;0.30;;;;;;;3.97;100.00;99196.44;4229788;28;20584;-72
2024/01/25 08:15:51;;;;;;;0.20;0.20;;;;;;;3.96;100.00;99187.56;4220971;28;20234;-69
2024/01/25 08:18:19;;;;;;;3.50;0.40;;;;;;;4.02;100.00;99185.31;4231207;28;20498;-70
2024/01/25 08:20:46;;;;;;;0.80;0.23;;;;;;;4.04;100.00;99181.53;4209185;28;20252;-72
2024/01/25 08:23:14;;;;;;;0.13;0.13;;;;;;;4.03;100.00;99189.69;4283630;28;20235;-72
2024/01/25 08:25:41;;;;;;;0.30;0.20;;;;;;;4.08;100.00;99184.78;4213991;28;20237;-70
2024/01/25 08:28:08;;;;;;;3.50;1.63;;;;;;;4.00;100.00;99190.00;4198552;28;20302;-72
2024/01/25 08:30:35;;;;;;;1.80;0.20;;;;;;;4.02;100.00;99199.59;4198870;28;20227;-72
2024/01/25 08:33:02;;;;;;;0.07;0.07;;;;;;;3.99;100.00;99199.00;4201706;28;20237;-71
2024/01/25 08:35:30;;;;;;;2.53;0.50;;;;;;;4.00;100.00;99208.72;4199759;28;20236;-70
2024/01/25 08:37:57;;;;;;;0.33;0.33;;;;;;;4.01;100.00;99208.59;4201990;28;20467;-72
2024/01/25 08:40:24;;;;;;;3.67;0.83;;;;;;;3.98;100.00;99206.16;4197186;28;21007;-70
2024/01/25 08:42:53;;;;;;;1.90;0.67;;;;;;;4.06;100.00;99208.19;4204557;28;20249;-69
2024/01/25 08:45:20;;;;;;;0.60;0.40;;;;;;;4.05;100.00;99217.19;4216783;28;21138;-70
2024/01/25 08:47:48;;;;;;;0.43;0.43;;;;;;;4.09;100.00;99213.25;4195401;28;20510;-72
2024/01/25 08:50:15;;;;;;;0.70;0.40;;;;;;;3.96;100.00;99218.88;4198362;28;20553;-71
2024/01/25 08:52:42;;;;;;;0.10;0.10;;;;;;;3.97;100.00;99216.06;4197215;28;21496;-70
2024/01/25 08:55:09;;;;;;;0.00;0.00;;;;;;;4.04;100.00;99224.38;4202232;28;25270;-71
2024/01/25 08:57:36;;;;;;;1.20;0.47;;;;;;;3.99;100.00;99231.97;4216208;28;20476;-71
2024/01/25 09:00:10;;;;;;;0.30;0.30;;;;;;;4.00;100.00;99225.63;4205847;28;22216;-72
2024/01/25 09:02:38;;;;;;;0.20;0.10;;;;;;;4.06;100.00;99240.31;4224383;28;21244;-73
2024/01/25 09:05:06;;;;;;;0.00;0.00;;;;;;;4.08;100.00;99247.25;4234180;28;21267;-71
2024/01/25 09:07:32;;;;;;;1.17;0.47;;;;;;;4.05;100.00;99243.97;4217503;28;20533;-71
2024/01/25 09:09:59;;;;;;;0.20;0.10;;;;;;;4.08;100.00;99254.41;4235890;28;20584;-71
2024/01/25 09:12:26;;;;;;;2.87;0.60;;;;;;;3.97;100.00;99264.25;4215914;28;21048;-71
2024/01/25 09:14:53;;;;;;;0.30;0.30;;;;;;;4.04;100.00;99263.72;4220113;28;20666;-71
2024/01/25 09:17:21;;;;;;;0.77;0.33;;;;;;;4.08;100.00;99278.50;4209958;28;20341;-73
2024/01/25 09:19:49;;;;;;;1.30;0.60;;;;;;;4.08;100.00;99271.34;4213190;28;20314;-71
2024/01/25 09:22:19;;;;;;;0.73;0.40;;;;;;;4.10;100.00;99279.22;4224044;28;20304;-71
2024/01/25 09:24:46;;;;;;;1.50;0.43;;;;;;;4.05;100.00;99276.94;4217364;28;20226;-71
2024/01/25 09:27:14;;;;;;;1.77;0.77;;;;;;;4.05;100.00;99278.78;4225215;28;20703;-74
2024/01/25 09:29:42;;;;;;;1.13;0.87;;;;;;;4.13;100.00;99295.03;4229564;28;20376;-74
2024/01/25 09:32:09;;;;;;;0.50;0.30;;;;;;;4.07;100.00;99288.38;4219603;28;20647;-73
2024/01/25 09:34:38;;;;;;;0.30;0.30;;;;;;;4.06;100.00;99291.22;4228597;28;21379;-73
2024/01/25 09:37:06;;;;;;;0.33;0.33;;;;;;;4.15;100.00;99297.56;4224740;28;21663;-73
2024/01/25 09:39:35;;;;;;;0.13;0.13;;;;;;;4.15;100.00;99293.09;4233706;28;21231;-72
2024/01/25 09:42:05;;;;;;;0.30;0.20;;;;;;;4.12;100.00;99293.34;4221474;28;20236;-72
2024/01/25 09:44:32;;;;;;;0.40;0.40;;;;;;;4.12;100.00;99307.56;4216546;28;20257;-71
2024/01/25 09:47:03;;;;;;;1.03;0.67;;;;;;;4.17;100.00;99303.66;4222829;28;20251;-66
2024/01/25 09:49:30;;;;;;;0.30;0.30;;;;;;;4.19;100.00;99320.44;4223848;28;20247;-69
2024/01/25 09:51:59;;;;;;;0.93;0.20;;;;;;;4.16;100.00;99321.53;4215891;28;20239;-66
2024/01/25 09:54:26;;;;;;;0.70;0.20;;;;;;;4.26;100.00;99316.25;4226351;28;20382;-71
2024/01/25 09:56:55;;;;;;;0.47;0.40;;;;;;;4.25;100.00;99319.91;4213360;28;20232;-69
2024/01/25 09:59:22;;;;;;;4.17;0.70;;;;;;;4.24;100.00;99329.75;4218026;28;20236;-73
2024/01/25 10:01:48;;;;;;;0.07;0.07;;;;;;;4.30;100.00;99319.50;4222226;28;21729;-71
2024/01/25 10:04:19;;;;;;;2.57;0.30;;;;;;;4.37;100.00;99318.81;4218232;28;21637;-70
2024/01/25 10:06:46;;;;;;;3.47;1.00;;;;;;;4.31;100.00;99322.03;4216070;28;20249;-71
2024/01/25 10:09:14;;;;;;;1.13;0.47;;;;;;;4.32;100.00;99329.09;4217904;28;21045;-70
2024/01/25 10:11:40;;;;;;;1.77;0.77;;;;;;;4.37;100.00;99342.09;4216281;28;20248;-72
2024/01/25 10:14:16;;;;;;;0.40;0.37;;;;;;;4.30;100.00;99328.38;4216965;28;20451;-71
2024/01/25 10:16:44;;;;;;;1.27;0.30;;;;;;;4.41;100.00;99339.03;4233211;28;20247;-70
2024/01/25 10:19:12;;;;;;;0.77;0.40;;;;;;;4.41;100.00;99351.56;4213952;28;20286;-69
2024/01/25 10:21:41;;;;;;;2.53;1.37;;;;;;;4.31;100.00;99347.97;4200170;28;20290;-69
2024/01/25 10:24:09;;;;;;;4.53;0.87;;;;;;;4.35;100.00;99352.94;4219912;28;20235;-71
2024/01/25 10:26:36;;;;;;;1.23;0.93;;;;;;;4.38;100.00;99352.69;4208765;28;20299;-71
2024/01/25 10:29:03;;;;;;;0.83;0.50;;;;;;;4.26;100.00;99351.06;4214638;28;20309;-71
2024/01/25 10:31:31;;;;;;;1.60;0.73;;;;;;;4.37;100.00;99347.47;4217010;28;20401;-69
2024/01/25 10:33:59;;;;;;;0.00;0.00;;;;;;;4.49;100.00;99357.09;4212669;28;20235;-68
2024/01/25 10:36:27;;;;;;;0.63;0.53;;;;;;;4.49;100.00;99350.91;4210430;28;20235;-69
2024/01/25 10:38:54;;;;;;;0.57;0.43;;;;;;;4.51;100.00;99351.59;4219411;28;20249;-69
2024/01/25 10:41:23;;;;;;;0.10;0.10;;;;;;;4.47;100.00;99348.31;4219558;28;20311;-69
2024/01/25 10:43:54;;;;;;;0.97;0.40;;;;;;;4.50;100.00;99349.88;4212361;28;20313;-69
2024/01/25 10:46:21;;;;;;;4.63;0.77;;;;;;;4.52;100.00;99353.28;4213821;28;20228;-71
2024/01/25 10:48:50;;;;;;;0.83;0.37;;;;;;;4.56;100.00;99354.72;4214194;28;20441;-69
2024/01/25 10:51:18;;;;;;;0.43;0.17;;;;;;;4.56;100.00;99362.78;4216058;28;25965;-70
2024/01/25 10:53:46;;;;;;;0.30;0.10;;;;;;;4.66;100.00;99368.16;4210323;28;21105;-71
2024/01/25 10:56:13;;;;;;;0.23;0.23;;;;;;;4.66;100.00;99366.31;4214611;28;20473;-70
2024/01/25 10:58:41;;;;;;;5.10;0.50;;;;;;;4.59;100.00;99370.53;4212953;28;20489;-69
2024/01/25 11:01:12;;;;;;;1.43;0.47;;;;;;;4.61;100.00;99373.91;4218808;28;23040;-71
2024/01/25 11:03:43;;;;;;;1.07;0.60;;;;;;;4.71;100.00;99373.94;4206311;28;20228;-72
2024/01/25 11:06:11;;;;;;;2.70;0.50;;;;;;;4.67;100.00;99372.53;4226077;28;20236;-71
2024/01/25 11:08:40;;;;;;;2.53;0.63;;;;;;;4.74;100.00;99371.84;4220720;28;21163;-71
2024/01/25 11:11:14;;;;;;;0.20;0.20;;;;;;;4.83;100.00;99377.38;4197838;28;20232;-70
2024/01/25 11:13:44;;;;;;;1.60;0.43;;;;;;;4.80;100.00;99373.13;4215185;28;20464;-72
2024/01/25 11:16:34;;;;;;;0.40;0.40;;;;;;;4.84;100.00;99377.22;4236742;28;20239;-70
2024/01/25 11:19:05;;;;;;;3.10;1.47;;;;;;;4.78;100.00;99387.66;4259896;28;20319;-71
2024/01/25 11:21:44;;;;;;;2.63;0.50;;;;;;;4.86;100.00;99393.19;4279385;28;20233;-70
2024/01/25 11:24:28;;;;;;;0.10;0.10;;;;;;;4.77;100.00;99386.81;4282270;28;20228;-69
2024/01/25 11:26:55;;;;;;;1.13;0.20;;;;;;;4.90;100.00;99390.13;4232306;28;20310;-72
2024/01/25 11:29:24;;;;;;;1.07;0.50;;;;;;;4.87;100.00;99390.38;4258614;28;21953;-72
2024/01/25 11:31:52;;;;;;;0.73;0.40;;;;;;;4.84;100.00;99404.03;4263156;28;22647;-67